Time;durP1;ratioP1;P1;durP2;ratioP2;P2;SDS_P1;SDS_P2;PMS_P1;PMS_P2;Temp;Humidity;BMP_temperature;BMP_pressure;BME280_temperature;BME280_humidity;BME280_pressure;Samples;Min_cycle;Max_cycle;Signal;HPM_P1;HPM_P2
2022/08/31 00:06:00;;;;;;;13.57;4.85;;;18.90;99.90;;;;;;5003340;28;20055;-59
2022/08/31 00:08:27;;;;;;;13.40;5.68;;;18.60;99.90;;;;;;4986298;28;20403;-61
2022/08/31 00:10:54;;;;;;;13.32;5.30;;;18.50;99.90;;;;;;5000891;28;20033;-60
2022/08/31 00:13:20;;;;;;;11.30;5.90;;;18.30;99.90;;;;;;5001914;28;20034;-59
2022/08/31 00:15:46;;;;;;;13.10;5.47;;;18.30;99.90;;;;;;5003047;28;20075;-60
2022/08/31 00:18:13;;;;;;;19.88;5.97;;;18.40;99.90;;;;;;5000831;28;20047;-58
2022/08/31 00:20:38;;;;;;;12.27;5.93;;;18.50;99.90;;;;;;5006020;28;20033;-60
2022/08/31 00:23:06;;;;;;;15.77;6.65;;;18.40;99.90;;;;;;5003093;28;20033;-59
2022/08/31 00:25:33;;;;;;;11.27;5.20;;;18.40;99.90;;;;;;5000725;28;20037;-60
2022/08/31 00:27:59;;;;;;;9.98;5.65;;;18.30;99.90;;;;;;5068856;22;20098;-65
2022/08/31 00:30:24;;;;;;;11.98;6.07;;;18.30;99.90;;;;;;5061975;28;20103;-64
2022/08/31 00:32:50;;;;;;;13.43;5.72;;;18.20;99.90;;;;;;5064393;28;20402;-64
2022/08/31 00:35:15;;;;;;;10.20;6.30;;;18.00;99.90;;;;;;5062919;28;20036;-65
2022/08/31 00:37:41;;;;;;;13.18;6.93;;;17.80;99.90;;;;;;5051078;28;20033;-64
2022/08/31 00:40:07;;;;;;;11.88;6.85;;;17.70;99.90;;;;;;5045762;28;20032;-64
2022/08/31 00:42:34;;;;;;;13.68;7.80;;;17.70;99.90;;;;;;5043236;28;20025;-64
2022/08/31 00:44:59;;;;;;;13.52;7.28;;;17.70;99.90;;;;;;5042975;28;20111;-64
2022/08/31 00:47:25;;;;;;;12.18;7.85;;;17.70;99.90;;;;;;5040527;28;20154;-64
2022/08/31 00:49:51;;;;;;;15.38;7.38;;;17.80;99.90;;;;;;5044878;28;20040;-65
2022/08/31 00:52:23;;;;;;;12.98;7.85;;;17.70;99.90;;;;;;5051504;28;20029;-65
2022/08/31 00:55:11;;;;;;;17.50;8.93;;;17.60;99.90;;;;;;5053237;28;20029;-64
2022/08/31 00:57:40;;;;;;;21.27;9.35;;;17.60;99.90;;;;;;5052790;28;20025;-65
2022/08/31 01:00:12;;;;;;;12.60;8.68;;;17.60;99.90;;;;;;5041640;28;20090;-63
2022/08/31 01:02:38;;;;;;;17.70;8.52;;;17.60;99.90;;;;;;5041920;28;20048;-64
2022/08/31 01:05:05;;;;;;;18.80;9.98;;;17.60;99.90;;;;;;5040384;28;20032;-64
2022/08/31 01:07:30;;;;;;;16.63;9.45;;;17.60;99.90;;;;;;5036707;28;20040;-65
2022/08/31 01:09:57;;;;;;;21.23;9.98;;;17.60;99.90;;;;;;5040226;28;20521;-64
2022/08/31 01:12:26;;;;;;;21.40;11.10;;;17.50;99.90;;;;;;5035166;28;20475;-64
2022/08/31 01:14:52;;;;;;;21.98;10.88;;;17.50;99.90;;;;;;5036920;28;20029;-64
2022/08/31 01:17:19;;;;;;;20.90;10.98;;;17.50;99.90;;;;;;5040458;28;20028;-65
2022/08/31 01:19:53;;;;;;;20.45;11.23;;;17.50;99.90;;;;;;5039677;28;20071;-65
2022/08/31 01:22:43;;;;;;;19.15;10.07;;;17.40;99.90;;;;;;5070112;28;20179;-64
2022/08/31 01:25:09;;;;;;;24.10;11.20;;;17.40;99.90;;;;;;5050387;28;20060;-65
2022/08/31 01:27:36;;;;;;;21.10;11.70;;;17.40;99.90;;;;;;5045388;28;20498;-64
2022/08/31 01:30:09;;;;;;;26.05;12.52;;;17.40;99.90;;;;;;5043018;28;20108;-64
2022/08/31 01:32:35;;;;;;;20.42;10.75;;;17.50;99.90;;;;;;5043070;28;20029;-65
2022/08/31 01:35:01;;;;;;;23.17;11.38;;;17.50;99.90;;;;;;5040942;28;20262;-65
2022/08/31 01:37:26;;;;;;;16.77;11.20;;;17.50;99.90;;;;;;5043377;28;20691;-65
2022/08/31 01:39:52;;;;;;;23.98;13.27;;;17.60;99.90;;;;;;5045927;28;20025;-65
2022/08/31 01:42:18;;;;;;;22.40;11.95;;;17.50;99.90;;;;;;5044871;28;20062;-65
2022/08/31 01:44:44;;;;;;;20.25;11.30;;;17.50;99.90;;;;;;5042934;28;20032;-65
2022/08/31 01:47:10;;;;;;;21.48;12.20;;;17.50;99.90;;;;;;5042307;28;20033;-64
2022/08/31 01:49:36;;;;;;;23.40;11.63;;;17.50;99.90;;;;;;5041341;28;20032;-64
2022/08/31 01:52:02;;;;;;;18.83;11.40;;;17.50;99.90;;;;;;5041853;28;21043;-64
2022/08/31 01:54:28;;;;;;;23.17;12.18;;;17.40;99.90;;;;;;5040452;28;20033;-65
2022/08/31 01:56:54;;;;;;;25.60;13.23;;;17.40;99.90;;;;;;5043373;28;20036;-64
2022/08/31 01:59:21;;;;;;;23.30;11.50;;;17.30;99.90;;;;;;5039822;28;20032;-65
2022/08/31 02:01:51;;;;;;;20.52;12.15;;;17.30;99.90;;;;;;5045548;28;20140;-64
2022/08/31 02:04:19;;;;;;;24.33;12.60;;;17.30;99.90;;;;;;5041701;28;20027;-64
2022/08/31 02:06:49;;;;;;;26.33;13.27;;;17.20;99.90;;;;;;5043827;28;20668;-66
2022/08/31 02:09:15;;;;;;;20.83;12.30;;;17.20;99.90;;;;;;5042562;28;20045;-65
2022/08/31 02:11:40;;;;;;;25.23;12.15;;;17.20;99.90;;;;;;5039790;28;20082;-65
2022/08/31 02:14:08;;;;;;;21.38;12.38;;;17.20;99.90;;;;;;5036209;28;20472;-65
2022/08/31 02:16:35;;;;;;;28.15;11.18;;;17.30;99.90;;;;;;5036442;28;20020;-65
2022/08/31 02:19:01;;;;;;;19.17;10.52;;;17.30;99.90;;;;;;5038115;28;20017;-65
2022/08/31 02:21:26;;;;;;;18.00;10.27;;;17.40;99.90;;;;;;5038460;28;20044;-65
2022/08/31 02:23:52;;;;;;;21.90;10.30;;;17.40;99.90;;;;;;5039827;28;20534;-64
2022/08/31 02:26:18;;;;;;;23.27;11.02;;;17.40;99.90;;;;;;5039257;28;20028;-65
2022/08/31 02:28:44;;;;;;;17.55;10.45;;;17.40;99.90;;;;;;5043005;28;20041;-65
2022/08/31 02:31:10;;;;;;;18.83;9.02;;;17.40;99.90;;;;;;5041551;28;20062;-64
2022/08/31 02:33:35;;;;;;;14.35;9.75;;;17.20;99.90;;;;;;5040971;28;20048;-64
2022/08/31 02:36:01;;;;;;;21.10;11.05;;;17.10;99.90;;;;;;5039940;28;20025;-64
2022/08/31 02:38:27;;;;;;;21.13;10.82;;;17.00;99.90;;;;;;5039033;28;20068;-65
2022/08/31 02:40:53;;;;;;;19.70;10.38;;;17.00;99.90;;;;;;5041567;28;20044;-64
2022/08/31 02:43:18;;;;;;;26.50;11.98;;;17.00;99.90;;;;;;5043459;28;20028;-65
2022/08/31 02:45:44;;;;;;;23.90;11.68;;;17.00;99.90;;;;;;5039513;28;20059;-64
2022/08/31 02:48:10;;;;;;;18.95;9.68;;;17.00;99.90;;;;;;5041072;28;20107;-65
2022/08/31 02:50:42;;;;;;;18.13;10.55;;;17.00;99.90;;;;;;5039873;28;20025;-64
2022/08/31 02:53:09;;;;;;;14.88;10.93;;;17.10;99.90;;;;;;5040302;28;20021;-64
2022/08/31 02:55:35;;;;;;;20.60;10.57;;;17.10;99.90;;;;;;5037566;28;20053;-65
2022/08/31 02:58:01;;;;;;;14.38;10.57;;;17.00;99.90;;;;;;5042723;28;20063;-64
2022/08/31 03:00:27;;;;;;;14.68;10.50;;;17.00;99.90;;;;;;5039300;28;20029;-64
2022/08/31 03:02:53;;;;;;;20.58;11.98;;;17.10;99.90;;;;;;5037675;28;20040;-65
2022/08/31 03:05:19;;;;;;;24.23;11.60;;;17.10;99.90;;;;;;5037528;28;20020;-62
2022/08/31 03:07:45;;;;;;;22.60;12.52;;;17.00;99.90;;;;;;5037693;28;20027;-62
2022/08/31 03:10:12;;;;;;;21.77;11.60;;;17.00;99.90;;;;;;5037702;28;20025;-62
2022/08/31 03:12:38;;;;;;;22.25;12.27;;;17.00;99.90;;;;;;5038181;28;20047;-62
2022/08/31 03:15:05;;;;;;;24.92;12.73;;;17.00;99.90;;;;;;5056493;28;20471;-62
2022/08/31 03:17:31;;;;;;;23.08;12.35;;;17.00;99.90;;;;;;5034932;28;20679;-62
2022/08/31 03:19:59;;;;;;;29.02;14.77;;;17.00;99.90;;;;;;5037398;28;20056;-62
2022/08/31 03:22:28;;;;;;;20.13;12.63;;;16.90;99.90;;;;;;5040581;28;20104;-65
2022/08/31 03:24:54;;;;;;;26.60;13.82;;;17.00;99.90;;;;;;5042796;28;20093;-64
2022/08/31 03:27:20;;;;;;;18.48;11.35;;;17.00;99.90;;;;;;5041622;28;20047;-64
2022/08/31 03:29:45;;;;;;;18.15;11.15;;;17.00;99.90;;;;;;5040269;28;20048;-63
2022/08/31 03:32:12;;;;;;;18.88;11.52;;;17.00;99.90;;;;;;5038592;28;20036;-63
2022/08/31 03:34:38;;;;;;;22.20;11.68;;;17.10;99.90;;;;;;5038839;28;20382;-65
2022/08/31 03:37:04;;;;;;;22.63;12.00;;;17.00;99.90;;;;;;5038030;28;20108;-64
2022/08/31 03:39:29;;;;;;;20.40;11.00;;;16.90;99.90;;;;;;5038277;28;20376;-64
2022/08/31 03:41:55;;;;;;;17.15;10.50;;;17.00;99.90;;;;;;5043716;28;20387;-64
2022/08/31 03:44:22;;;;;;;21.77;12.38;;;17.00;99.90;;;;;;5052025;28;20029;-64
2022/08/31 03:46:54;;;;;;;23.35;11.90;;;17.00;99.90;;;;;;5037446;28;20030;-64
2022/08/31 03:49:21;;;;;;;24.50;11.63;;;17.00;99.90;;;;;;5037717;28;20023;-64
2022/08/31 03:51:46;;;;;;;22.25;13.18;;;17.00;99.90;;;;;;5037859;28;20025;-64
2022/08/31 03:54:12;;;;;;;21.55;12.00;;;17.10;99.90;;;;;;5035872;28;20153;-65
2022/08/31 03:56:38;;;;;;;19.45;12.00;;;17.10;99.90;;;;;;5037837;28;20025;-65
2022/08/31 03:59:04;;;;;;;25.38;13.30;;;17.00;99.90;;;;;;5035510;28;20033;-64
2022/08/31 04:01:30;;;;;;;21.27;12.82;;;17.00;99.90;;;;;;5038345;28;20904;-64
2022/08/31 04:03:55;;;;;;;15.35;11.40;;;17.00;99.90;;;;;;5036515;28;20393;-64
2022/08/31 04:06:21;;;;;;;23.63;13.73;;;17.00;99.90;;;;;;5037711;28;20024;-64
2022/08/31 04:08:46;;;;;;;20.83;11.02;;;17.00;99.90;;;;;;5038177;28;20680;-64
2022/08/31 04:11:15;;;;;;;23.88;12.25;;;17.00;99.90;;;;;;5038157;28;20044;-65
2022/08/31 04:13:42;;;;;;;19.65;12.50;;;16.90;99.90;;;;;;5039439;28;20037;-64
2022/08/31 04:16:10;;;;;;;22.20;12.10;;;16.90;99.90;;;;;;5037567;28;20540;-64
2022/08/31 04:18:37;;;;;;;20.25;11.63;;;17.00;99.90;;;;;;5039490;28;21301;-64
2022/08/31 04:21:04;;;;;;;22.40;12.57;;;16.90;99.90;;;;;;5037123;28;20033;-65
2022/08/31 04:23:29;;;;;;;26.38;12.80;;;16.90;99.90;;;;;;5039214;28;20025;-64
2022/08/31 04:25:56;;;;;;;21.92;13.23;;;16.80;99.90;;;;;;5042104;28;20522;-64
2022/08/31 04:28:23;;;;;;;23.52;12.32;;;16.80;99.90;;;;;;5042782;28;20404;-63
2022/08/31 04:30:48;;;;;;;24.33;12.98;;;16.80;99.90;;;;;;5045107;28;20036;-64
2022/08/31 04:33:15;;;;;;;23.10;13.60;;;16.80;99.90;;;;;;5042384;28;20025;-63
2022/08/31 04:35:41;;;;;;;16.65;12.00;;;16.80;99.90;;;;;;5042275;28;20487;-64
2022/08/31 04:38:07;;;;;;;18.13;12.68;;;16.90;99.90;;;;;;5039338;28;20025;-64
2022/08/31 04:40:36;;;;;;;22.58;12.68;;;16.90;99.90;;;;;;5039745;28;20021;-64
2022/08/31 04:43:01;;;;;;;26.30;13.77;;;16.90;99.90;;;;;;5043207;28;20076;-65
2022/08/31 04:45:28;;;;;;;18.67;13.02;;;16.80;99.90;;;;;;5048358;28;20029;-64
2022/08/31 04:47:53;;;;;;;27.58;14.52;;;16.80;99.90;;;;;;5041177;28;20059;-64
2022/08/31 04:50:19;;;;;;;24.20;14.90;;;16.80;99.90;;;;;;5041117;28;20045;-64
2022/08/31 04:52:49;;;;;;;27.65;14.73;;;16.90;99.90;;;;;;5038328;28;20021;-64
2022/08/31 04:55:15;;;;;;;23.05;13.40;;;16.80;99.90;;;;;;5040846;28;20538;-64
2022/08/31 04:57:40;;;;;;;20.73;14.07;;;16.80;99.90;;;;;;5042515;28;20215;-63
2022/08/31 05:00:09;;;;;;;19.35;13.18;;;16.90;99.90;;;;;;5039720;28;20043;-64
2022/08/31 05:02:35;;;;;;;23.05;13.60;;;16.90;99.90;;;;;;5039656;28;20035;-64
2022/08/31 05:05:01;;;;;;;24.27;13.40;;;17.00;99.90;;;;;;5040518;28;20033;-64
2022/08/31 05:07:27;;;;;;;28.33;14.95;;;17.00;99.90;;;;;;5040572;28;20029;-57
2022/08/31 05:09:52;;;;;;;18.75;12.85;;;17.10;99.90;;;;;;5039150;28;20410;-58
2022/08/31 05:12:18;;;;;;;23.23;14.50;;;17.20;99.90;;;;;;5045784;28;20053;-55
2022/08/31 05:14:44;;;;;;;22.98;14.05;;;17.20;99.90;;;;;;5059584;28;20078;-57
2022/08/31 05:17:10;;;;;;;19.60;12.40;;;17.20;99.90;;;;;;5048841;28;20389;-56
2022/08/31 05:19:36;;;;;;;20.60;13.13;;;17.20;99.90;;;;;;5046818;28;20017;-54
2022/08/31 05:22:02;;;;;;;23.33;15.23;;;17.20;99.90;;;;;;5050387;28;20029;-57
2022/08/31 05:24:29;;;;;;;18.92;12.90;;;17.20;99.90;;;;;;5051369;28;20032;-57
2022/08/31 05:26:55;;;;;;;20.52;12.95;;;17.20;99.90;;;;;;5049428;28;20398;-57
2022/08/31 05:29:23;;;;;;;22.52;13.85;;;17.30;99.90;;;;;;5036523;28;20036;-55
2022/08/31 05:31:49;;;;;;;25.30;13.70;;;17.30;99.90;;;;;;5057210;28;20382;-56
2022/08/31 05:34:16;;;;;;;20.10;12.95;;;17.30;99.90;;;;;;5056358;28;20510;-55
2022/08/31 05:36:44;;;;;;;20.95;13.75;;;17.40;99.90;;;;;;5051122;28;20117;-58
2022/08/31 05:39:11;;;;;;;24.48;13.80;;;17.30;99.90;;;;;;5053834;28;20563;-57
2022/08/31 05:41:39;;;;;;;26.50;15.38;;;17.40;99.90;;;;;;5056097;28;20108;-58
2022/08/31 05:44:05;;;;;;;18.17;12.68;;;17.40;99.90;;;;;;5050509;28;20510;-56
2022/08/31 05:46:30;;;;;;;23.25;13.13;;;17.40;99.90;;;;;;5048197;28;20035;-57
2022/08/31 05:48:56;;;;;;;21.63;13.57;;;17.50;99.90;;;;;;5048340;28;20479;-54
2022/08/31 05:51:22;;;;;;;20.95;14.00;;;17.60;99.90;;;;;;5056041;28;20110;-58
2022/08/31 05:53:48;;;;;;;25.63;14.38;;;17.60;99.90;;;;;;5050753;28;20081;-58
2022/08/31 05:56:23;;;;;;;28.45;13.82;;;17.60;99.90;;;;;;5054135;28;20436;-57
2022/08/31 05:58:50;;;;;;;22.15;14.38;;;17.70;99.90;;;;;;5047897;28;20025;-55
2022/08/31 06:01:17;;;;;;;30.25;14.25;;;17.70;99.90;;;;;;5053483;28;20036;-58
2022/08/31 06:03:43;;;;;;;21.90;14.68;;;17.70;99.90;;;;;;5046536;28;20033;-54
2022/08/31 06:06:08;;;;;;;26.58;14.68;;;17.70;99.90;;;;;;5048113;28;20040;-55
2022/08/31 06:08:35;;;;;;;23.20;14.15;;;17.60;99.90;;;;;;5050771;28;20028;-56
2022/08/31 06:11:02;;;;;;;25.48;13.98;;;17.70;99.90;;;;;;5058642;28;20040;-56
2022/08/31 06:13:28;;;;;;;21.38;14.57;;;17.70;99.90;;;;;;5079532;28;20027;-56
2022/08/31 06:15:56;;;;;;;22.58;14.15;;;17.80;99.90;;;;;;5051953;28;20152;-55
2022/08/31 06:18:22;;;;;;;22.23;12.32;;;17.80;99.90;;;;;;5049489;28;20101;-56
2022/08/31 06:20:48;;;;;;;19.88;12.32;;;17.70;99.90;;;;;;5054059;28;20047;-56
2022/08/31 06:23:14;;;;;;;18.80;11.40;;;17.70;99.90;;;;;;5054068;28;20100;-55
2022/08/31 06:25:40;;;;;;;23.02;13.27;;;17.80;99.90;;;;;;5052628;28;20033;-56
2022/08/31 06:28:06;;;;;;;20.02;11.82;;;17.80;99.90;;;;;;5048836;28;20043;-55
2022/08/31 06:30:35;;;;;;;17.38;11.38;;;17.70;99.90;;;;;;5055838;28;20033;-55
2022/08/31 06:33:01;;;;;;;21.13;12.00;;;17.80;99.90;;;;;;5051344;28;20942;-56
2022/08/31 06:35:27;;;;;;;21.13;12.07;;;17.80;99.90;;;;;;5054075;28;20019;-56
2022/08/31 06:37:54;;;;;;;18.85;11.75;;;17.90;99.90;;;;;;5048531;28;20025;-51
2022/08/31 06:40:19;;;;;;;20.23;11.48;;;17.90;99.90;;;;;;5054981;28;20016;-57
2022/08/31 06:42:45;;;;;;;21.08;11.85;;;18.00;99.90;;;;;;5060217;28;20021;-55
2022/08/31 06:45:11;;;;;;;21.20;12.80;;;18.10;99.90;;;;;;5052924;28;20100;-55
2022/08/31 06:47:36;;;;;;;21.88;12.75;;;18.20;99.90;;;;;;5048978;28;20382;-56
2022/08/31 06:50:03;;;;;;;19.10;12.80;;;18.20;99.90;;;;;;5049190;28;20035;-55
2022/08/31 06:52:29;;;;;;;18.95;11.23;;;18.20;99.90;;;;;;5031708;28;20032;-55
2022/08/31 06:54:55;;;;;;;18.80;10.00;;;18.20;99.90;;;;;;5048673;28;20067;-51
2022/08/31 06:57:21;;;;;;;19.92;11.60;;;18.20;99.90;;;;;;5050258;28;20050;-56
2022/08/31 06:59:47;;;;;;;19.58;11.82;;;18.30;99.90;;;;;;5054892;28;20314;-57
2022/08/31 07:02:12;;;;;;;20.02;11.68;;;18.30;99.90;;;;;;5050328;28;20078;-55
2022/08/31 07:04:38;;;;;;;23.88;12.70;;;18.30;99.90;;;;;;5049745;28;20028;-55
2022/08/31 07:07:06;;;;;;;16.38;12.07;;;18.40;99.90;;;;;;5048754;28;20028;-54
2022/08/31 07:09:32;;;;;;;21.75;13.20;;;18.50;99.90;;;;;;5049190;28;20012;-54
2022/08/31 07:11:57;;;;;;;18.90;12.43;;;18.60;99.90;;;;;;5048635;28;20391;-56
2022/08/31 07:14:25;;;;;;;14.75;10.77;;;18.70;99.90;;;;;;5048715;28;20047;-57
2022/08/31 07:16:55;;;;;;;23.75;12.52;;;18.80;99.90;;;;;;5049707;28;20056;-55
2022/08/31 07:19:21;;;;;;;17.50;11.75;;;18.80;99.90;;;;;;5049485;28;20092;-56
2022/08/31 07:21:53;;;;;;;16.17;11.88;;;18.80;99.90;;;;;;5050396;28;20048;-54
2022/08/31 07:24:23;;;;;;;34.10;12.32;;;18.90;99.90;;;;;;5045585;28;20094;-55
2022/08/31 07:26:56;;;;;;;15.25;9.90;;;19.00;99.90;;;;;;5053938;28;20040;-55
2022/08/31 07:29:24;;;;;;;15.68;10.38;;;19.10;99.90;;;;;;5056434;28;20029;-53
2022/08/31 07:31:50;;;;;;;14.45;9.98;;;19.00;99.90;;;;;;5057330;28;20021;-58
2022/08/31 07:34:25;;;;;;;16.95;9.02;;;19.10;99.90;;;;;;5051071;28;20437;-58
2022/08/31 07:42:30;;;;;;;12.02;8.27;;;19.10;99.90;;;;;;5054389;28;20040;-56
2022/08/31 07:44:59;;;;;;;11.75;7.57;;;18.90;99.90;;;;;;5049488;28;20029;-56
2022/08/31 07:47:27;;;;;;;11.80;8.15;;;19.00;99.90;;;;;;5048904;28;20037;-57
2022/08/31 07:49:54;;;;;;;14.00;9.18;;;18.90;99.90;;;;;;5055624;28;20849;-55
2022/08/31 07:52:29;;;;;;;12.98;8.35;;;18.90;99.90;;;;;;5049333;28;20033;-57
2022/08/31 07:55:06;;;;;;;16.77;8.85;;;18.90;99.90;;;;;;5046129;28;20029;-56
2022/08/31 07:57:47;;;;;;;14.50;9.98;;;18.90;99.90;;;;;;5048857;28;20096;-56
2022/08/31 08:00:22;;;;;;;20.33;10.07;;;19.00;99.90;;;;;;5049981;28;20017;-58
2022/08/31 08:02:48;;;;;;;;;;;19.10;99.90;;;;;;5053086;28;20542;-56
2022/08/31 08:05:20;;;;;;;18.13;9.32;;;19.10;99.90;;;;;;5048155;28;19909;-56
2022/08/31 08:07:48;;;;;;;15.40;10.00;;;19.20;99.90;;;;;;5047711;28;20025;-58
2022/08/31 08:10:15;;;;;;;15.30;9.45;;;19.30;99.90;;;;;;5052970;28;20103;-55
2022/08/31 08:12:43;;;;;;;17.80;9.30;;;19.30;99.90;;;;;;5045269;28;20049;-56
2022/08/31 08:15:09;;;;;;;18.17;9.05;;;19.30;99.90;;;;;;5053458;28;20100;-56
2022/08/31 08:17:35;;;;;;;14.88;8.13;;;19.40;99.90;;;;;;5052126;28;20017;-57
2022/08/31 08:20:01;;;;;;;15.05;8.43;;;19.50;99.90;;;;;;5055477;28;20072;-56
2022/08/31 08:22:27;;;;;;;13.75;9.27;;;19.50;99.90;;;;;;5050017;28;20028;-56
2022/08/31 08:24:54;;;;;;;11.13;7.93;;;19.50;99.90;;;;;;5049261;28;20517;-56
2022/08/31 08:27:19;;;;;;;12.25;8.25;;;19.50;99.90;;;;;;5060707;28;20034;-56
2022/08/31 08:29:45;;;;;;;14.60;7.28;;;19.50;99.90;;;;;;5048266;28;20105;-58
2022/08/31 08:32:10;;;;;;;15.63;8.45;;;19.50;99.90;;;;;;5051814;28;20032;-57
2022/08/31 08:34:42;;;;;;;13.70;7.07;;;19.50;99.90;;;;;;5054032;28;20386;-57
2022/08/31 08:37:10;;;;;;;13.27;8.18;;;19.50;99.90;;;;;;5050513;28;20021;-57
2022/08/31 08:39:37;;;;;;;16.50;8.40;;;19.40;99.90;;;;;;5052415;28;20100;-56
2022/08/31 08:42:04;;;;;;;12.55;8.23;;;19.30;99.90;;;;;;5053259;28;20025;-57
2022/08/31 08:44:31;;;;;;;10.48;7.35;;;19.30;99.90;;;;;;5051266;28;20493;-57
2022/08/31 08:47:01;;;;;;;15.02;8.35;;;19.40;99.90;;;;;;5052708;28;20035;-53
2022/08/31 08:49:27;;;;;;;13.82;9.07;;;19.50;99.90;;;;;;5050859;28;20118;-56
2022/08/31 08:51:57;;;;;;;15.32;8.25;;;19.60;99.90;;;;;;5053394;28;20029;-54
2022/08/31 08:54:32;;;;;;;14.48;9.68;;;19.60;99.90;;;;;;5045462;28;20479;-55
2022/08/31 08:56:59;;;;;;;12.27;8.30;;;19.60;99.90;;;;;;5058048;28;20056;-57
2022/08/31 08:59:27;;;;;;;17.60;8.68;;;19.60;99.90;;;;;;5049732;28;20035;-55
2022/08/31 09:02:05;;;;;;;18.10;7.90;;;19.60;99.90;;;;;;5051807;28;20445;-58
2022/08/31 09:04:30;;;;;;;12.20;8.27;;;19.70;99.90;;;;;;5047451;28;20487;-56
2022/08/31 09:07:21;;;;;;;11.75;7.10;;;19.90;99.90;;;;;;5052861;28;20036;-56
2022/08/31 09:10:13;;;;;;;12.93;7.10;;;20.20;99.90;;;;;;5045092;28;20510;-57
2022/08/31 09:12:45;;;;;;;14.95;6.82;;;20.40;99.90;;;;;;5038840;28;20048;-57
2022/08/31 09:15:49;;;;;;;10.25;6.72;;;20.50;99.90;;;;;;5051830;28;20013;-53
2022/08/31 09:18:29;;;;;;;13.57;7.40;;;20.70;99.90;;;;;;5052395;28;20028;-54
2022/08/31 09:21:03;;;;;;;9.68;6.60;;;20.90;99.90;;;;;;5051122;28;20031;-57
2022/08/31 09:23:34;;;;;;;13.70;5.93;;;21.00;99.90;;;;;;5047727;28;20028;-53
2022/08/31 09:26:01;;;;;;;11.30;6.70;;;21.10;99.90;;;;;;5053282;28;20055;-55
2022/08/31 09:28:56;;;;;;;8.88;5.63;;;21.00;99.90;;;;;;5048197;28;20119;-55
2022/08/31 09:31:35;;;;;;;;;;;20.90;99.90;;;;;;5034567;28;20137;-67
2022/08/31 09:34:23;;;;;;;8.93;6.45;;;21.00;99.90;;;;;;5045286;28;19999;-64
2022/08/31 09:36:50;;;;;;;11.23;6.93;;;21.00;99.90;;;;;;5046416;28;20147;-64
2022/08/31 09:39:17;;;;;;;9.93;6.32;;;20.80;99.90;;;;;;5057834;28;20049;-63
2022/08/31 09:41:43;;;;;;;8.13;6.85;;;20.90;99.90;;;;;;5048679;28;20078;-64
2022/08/31 09:44:39;;;;;;;12.70;6.40;;;21.10;99.90;;;;;;5047060;28;20029;-63
2022/08/31 09:47:26;;;;;;;8.93;6.63;;;21.40;99.90;;;;;;5047002;28;20044;-64
2022/08/31 09:49:55;;;;;;;9.45;6.75;;;21.60;99.90;;;;;;5049941;28;20032;-63
2022/08/31 09:55:39;;;;;;;9.57;5.72;;;21.80;99.90;;;;;;5048984;28;20060;-63
2022/08/31 09:58:10;;;;;;;17.08;7.53;;;21.90;99.90;;;;;;5045378;28;20030;-64
2022/08/31 10:00:41;;;;;;;11.15;6.95;;;22.10;99.90;;;;;;5047570;28;20029;-64
2022/08/31 10:03:17;;;;;;;13.82;6.38;;;22.10;99.90;;;;;;5047901;28;20028;-64
2022/08/31 10:05:43;;;;;;;8.82;6.15;;;22.20;99.90;;;;;;5048163;28;20045;-64
2022/08/31 10:08:29;;;;;;;10.90;6.55;;;22.40;99.90;;;;;;5046803;28;20098;-64
2022/08/31 10:11:00;;;;;;;10.68;5.78;;;22.60;99.90;;;;;;5047682;28;20029;-64
2022/08/31 10:13:44;;;;;;;9.60;5.68;;;22.80;99.90;;;;;;5046434;28;20025;-64
2022/08/31 10:16:24;;;;;;;9.85;5.95;;;23.10;99.90;;;;;;5043609;28;20025;-64
2022/08/31 10:19:04;;;;;;;6.85;5.60;;;23.50;99.90;;;;;;5047471;28;20573;-64
2022/08/31 10:21:52;;;;;;;13.18;6.75;;;23.20;99.90;;;;;;5045580;28;20854;-64
2022/08/31 10:24:32;;;;;;;12.60;6.57;;;23.30;99.90;;;;;;5047220;28;20044;-64
2022/08/31 10:27:21;;;;;;;9.45;6.15;;;23.40;99.90;;;;;;5045626;28;20041;-64
2022/08/31 10:30:13;;;;;;;11.07;5.78;;;23.60;99.90;;;;;;5040367;28;20033;-64
2022/08/31 10:32:46;;;;;;;7.82;5.25;;;23.40;99.90;;;;;;5047475;28;20108;-64
2022/08/31 10:35:19;;;;;;;8.65;5.55;;;23.60;99.90;;;;;;5046354;28;20031;-64
2022/08/31 10:38:11;;;;;;;10.30;5.97;;;23.60;99.90;;;;;;5045082;28;20395;-64
2022/08/31 10:41:07;;;;;;;10.27;6.03;;;23.40;99.90;;;;;;5047085;28;20111;-64
2022/08/31 10:43:43;;;;;;;18.05;5.68;;;23.50;99.90;;;;;;5046604;28;20040;-65
2022/08/31 10:46:09;;;;;;;11.88;6.10;;;23.60;99.90;;;;;;5045697;28;20036;-64
2022/08/31 10:48:36;;;;;;;13.23;5.13;;;23.30;99.90;;;;;;5047243;28;20487;-64
2022/08/31 10:51:26;;;;;;;10.02;5.65;;;23.40;99.90;;;;;;5046388;28;20112;-64
2022/08/31 10:53:52;;;;;;;12.98;5.35;;;23.70;99.90;;;;;;5046328;28;20372;-64
2022/08/31 10:56:24;;;;;;;5.43;4.53;;;24.00;99.90;;;;;;5046429;28;20036;-64
2022/08/31 10:58:57;;;;;;;9.40;4.47;;;24.30;99.90;;;;;;5046857;28;20041;-64
2022/08/31 11:01:47;;;;;;;8.57;4.85;;;24.40;99.90;;;;;;5045994;28;20028;-65
2022/08/31 11:04:28;;;;;;;7.97;4.57;;;24.30;99.90;;;;;;5045814;28;20029;-64
2022/08/31 11:07:06;;;;;;;5.30;4.25;;;24.40;99.90;;;;;;5047218;28;20029;-64
2022/08/31 11:10:07;;;;;;;8.07;4.18;;;25.00;99.90;;;;;;5046994;28;20025;-64
2022/08/31 11:12:41;;;;;;;8.73;4.55;;;25.20;99.90;;;;;;5048668;28;20033;-64
2022/08/31 11:15:29;;;;;;;5.13;3.65;;;25.60;99.90;;;;;;5044289;28;20029;-64
2022/08/31 11:18:34;;;;;;;5.15;4.05;;;26.10;99.90;;;;;;5041739;28;20028;-65
2022/08/31 11:21:18;;;;;;;6.60;4.20;;;26.20;99.90;;;;;;5036744;28;20032;-64
2022/08/31 11:23:47;;;;;;;6.03;3.95;;;26.10;99.90;;;;;;5046424;28;20032;-64
2022/08/31 11:26:25;;;;;;;5.30;3.63;;;26.00;99.90;;;;;;5045569;28;20036;-64
2022/08/31 11:29:01;;;;;;;5.93;4.03;;;25.30;99.90;;;;;;5044755;28;20052;-64
2022/08/31 11:31:31;;;;;;;5.50;3.80;;;25.10;99.90;;;;;;5042758;28;20049;-61
2022/08/31 11:34:06;;;;;;;7.63;3.85;;;25.00;99.90;;;;;;5047629;28;20064;-61
2022/08/31 11:36:48;;;;;;;6.22;3.83;;;25.00;99.90;;;;;;5046963;28;20024;-61
2022/08/31 11:39:25;;;;;;;11.00;5.82;;;24.70;99.90;;;;;;5041667;28;20029;-62
2022/08/31 11:41:52;;;;;;;8.45;4.10;;;24.80;99.90;;;;;;5048351;28;20129;-61
2022/08/31 11:44:28;;;;;;;4.93;3.63;;;24.80;99.90;;;;;;5045033;28;20033;-62
2022/08/31 11:47:29;;;;;;;5.35;3.75;;;25.00;99.90;;;;;;5048176;28;20029;-62
2022/08/31 11:49:58;;;;;;;5.13;3.72;;;25.00;99.90;;;;;;5047983;28;20052;-60
2022/08/31 11:52:46;;;;;;;4.20;3.67;;;25.20;99.90;;;;;;5042820;28;20017;-61
2022/08/31 11:55:28;;;;;;;7.57;3.97;;;25.40;99.90;;;;;;5049838;28;20129;-62
2022/08/31 11:58:06;;;;;;;10.57;4.00;;;25.20;99.90;;;;;;5048140;28;20036;-60
2022/08/31 12:00:56;;;;;;;5.28;3.13;;;24.80;99.90;;;;;;5050550;28;20370;-61
2022/08/31 12:04:03;;;;;;;6.80;3.40;;;24.70;99.90;;;;;;5044672;28;20082;-62
2022/08/31 12:06:32;;;;;;;11.32;3.55;;;24.70;99.90;;;;;;5044254;28;20040;-62
2022/08/31 12:09:00;;;;;;;4.15;3.05;;;24.80;99.90;;;;;;5040718;28;20069;-62
2022/08/31 12:11:46;;;;;;;8.00;3.25;;;24.80;99.90;;;;;;5051567;28;20033;-62
2022/08/31 12:14:36;;;;;;;6.60;3.08;;;25.40;99.90;;;;;;5044190;28;20039;-61
2022/08/31 12:17:20;;;;;;;4.28;2.70;;;25.60;99.90;;;;;;5049870;28;20036;-68
2022/08/31 12:20:00;;;;;;;4.45;2.92;;;25.70;99.90;;;;;;5042740;28;20057;-65
2022/08/31 12:25:53;;;;;;;8.02;2.97;;;26.60;99.90;;;;;;5006419;28;20048;-66
2022/08/31 12:28:54;;;;;;;4.20;3.10;;;26.50;99.90;;;;;;5047584;28;20124;-66
2022/08/31 12:31:20;;;;;;;5.05;3.25;;;26.20;99.90;;;;;;5057022;28;20020;-66
2022/08/31 12:34:11;;;;;;;4.38;3.28;;;25.60;99.90;;;;;;5043288;28;20042;-67
2022/08/31 12:36:37;;;;;;;4.93;3.58;;;25.70;99.90;;;;;;5044201;28;20021;-66
2022/08/31 12:39:19;;;;;;;6.28;3.63;;;26.10;99.90;;;;;;5046910;28;20037;-65
2022/08/31 12:41:53;;;;;;;7.75;3.55;;;26.10;99.90;;;;;;5048092;28;20025;-65
2022/08/31 12:44:27;;;;;;;4.88;3.47;;;26.50;99.90;;;;;;5051993;28;20438;-65
2022/08/31 12:47:04;;;;;;;9.63;3.47;;;26.80;99.90;;;;;;5050857;28;20483;-66
2022/08/31 12:49:36;;;;;;;4.45;2.85;;;26.70;99.90;;;;;;5046339;28;20562;-70
2022/08/31 12:52:10;;;;;;;4.25;2.97;;;27.10;99.90;;;;;;5054960;28;20427;-66
2022/08/31 12:55:04;;;;;;;4.03;3.53;;;27.10;99.90;;;;;;5056526;28;20029;-67
2022/08/31 12:57:36;;;;;;;7.40;2.85;;;27.50;99.90;;;;;;5054210;28;20059;-66
2022/08/31 13:00:24;;;;;;;5.30;3.28;;;27.80;99.90;;;;;;5057449;28;20114;-65
2022/08/31 13:02:53;;;;;;;8.45;3.50;;;27.70;99.90;;;;;;5052746;28;20029;-64
2022/08/31 13:05:19;;;;;;;4.25;3.13;;;27.30;99.90;;;;;;5047737;28;20029;-65
2022/08/31 13:07:45;;;;;;;6.50;3.15;;;27.50;99.90;;;;;;5048269;28;20441;-65
2022/08/31 13:10:24;;;;;;;5.30;3.63;;;27.60;99.90;;;;;;5054376;28;20021;-64